sensor_id;sensor_type;location;lat;lon;timestamp;pressure;altitude;pressure_sealevel;temperature;humidity
62510;BME280;48558;48.242;11.654;2023-02-13T00:00:52;98174.44;;;1.24;100.00
62510;BME280;48558;48.242;11.654;2023-02-13T00:05:15;98178.25;;;1.19;100.00
62510;BME280;48558;48.242;11.654;2023-02-13T00:09:28;98160.91;;;1.27;100.00
62510;BME280;48558;48.242;11.654;2023-02-13T00:13:40;98173.00;;;1.30;100.00
62510;BME280;48558;48.242;11.654;2023-02-13T00:17:53;98167.13;;;1.28;100.00
62510;BME280;48558;48.242;11.654;2023-02-13T00:22:05;98162.69;;;1.39;100.00
62510;BME280;48558;48.242;11.654;2023-02-13T00:26:18;98165.06;;;1.40;100.00
62510;BME280;48558;48.242;11.654;2023-02-13T00:30:30;98154.91;;;1.37;100.00
62510;BME280;48558;48.242;11.654;2023-02-13T00:34:43;98143.00;;;1.26;100.00
62510;BME280;48558;48.242;11.654;2023-02-13T00:38:55;98132.53;;;1.28;100.00
62510;BME280;48558;48.242;11.654;2023-02-13T00:43:08;98135.53;;;1.42;100.00
62510;BME280;48558;48.242;11.654;2023-02-13T00:47:21;98144.16;;;1.44;100.00
62510;BME280;48558;48.242;11.654;2023-02-13T00:51:33;98131.22;;;1.22;100.00
62510;BME280;48558;48.242;11.654;2023-02-13T00:55:46;98143.06;;;1.30;100.00
62510;BME280;48558;48.242;11.654;2023-02-13T00:59:59;98134.81;;;1.26;100.00
62510;BME280;48558;48.242;11.654;2023-02-13T01:04:11;98145.28;;;1.24;100.00
62510;BME280;48558;48.242;11.654;2023-02-13T01:08:24;98141.44;;;1.44;100.00
62510;BME280;48558;48.242;11.654;2023-02-13T01:12:39;98139.53;;;1.29;100.00
62510;BME280;48558;48.242;11.654;2023-02-13T01:16:51;98135.09;;;1.21;100.00
62510;BME280;48558;48.242;11.654;2023-02-13T01:21:07;98136.53;;;1.34;100.00
62510;BME280;48558;48.242;11.654;2023-02-13T01:25:23;98138.84;;;1.32;100.00
62510;BME280;48558;48.242;11.654;2023-02-13T01:29:44;98134.03;;;1.26;100.00
62510;BME280;48558;48.242;11.654;2023-02-13T01:33:57;98142.03;;;1.19;100.00
62510;BME280;48558;48.242;11.654;2023-02-13T01:38:09;98128.84;;;1.02;100.00
62510;BME280;48558;48.242;11.654;2023-02-13T01:42:28;98134.94;;;1.14;100.00
62510;BME280;48558;48.242;11.654;2023-02-13T01:46:43;98137.72;;;1.18;100.00
62510;BME280;48558;48.242;11.654;2023-02-13T01:51:14;98133.50;;;1.20;100.00
62510;BME280;48558;48.242;11.654;2023-02-13T01:55:30;98134.31;;;1.21;100.00
62510;BME280;48558;48.242;11.654;2023-02-13T01:59:54;98126.78;;;1.33;100.00
62510;BME280;48558;48.242;11.654;2023-02-13T02:04:21;98125.75;;;1.22;100.00
62510;BME280;48558;48.242;11.654;2023-02-13T02:08:38;98121.53;;;1.06;100.00
62510;BME280;48558;48.242;11.654;2023-02-13T02:13:10;98139.38;;;1.03;100.00
62510;BME280;48558;48.242;11.654;2023-02-13T02:17:25;98146.25;;;1.16;100.00
62510;BME280;48558;48.242;11.654;2023-02-13T02:21:44;98143.06;;;1.11;100.00
62510;BME280;48558;48.242;11.654;2023-02-13T02:41:56;98152.16;;;0.84;100.00
62510;BME280;48558;48.242;11.654;2023-02-13T02:46:26;98148.03;;;0.74;100.00
62510;BME280;48558;48.242;11.654;2023-02-13T02:55:40;98144.16;;;0.75;100.00
62510;BME280;48558;48.242;11.654;2023-02-13T02:59:58;98139.00;;;0.70;100.00
62510;BME280;48558;48.242;11.654;2023-02-13T03:04:36;98133.44;;;0.82;100.00
62510;BME280;48558;48.242;11.654;2023-02-13T03:09:14;98140.66;;;0.59;100.00
62510;BME280;48558;48.242;11.654;2023-02-13T03:13:50;98136.38;;;0.73;100.00
62510;BME280;48558;48.242;11.654;2023-02-13T03:18:03;98138.41;;;0.61;100.00
62510;BME280;48558;48.242;11.654;2023-02-13T03:22:59;98130.06;;;0.69;100.00
62510;BME280;48558;48.242;11.654;2023-02-13T03:27:41;98135.75;;;0.64;100.00
62510;BME280;48558;48.242;11.654;2023-02-13T03:32:34;98139.81;;;0.55;100.00
62510;BME280;48558;48.242;11.654;2023-02-13T03:37:01;98140.78;;;0.47;100.00
62510;BME280;48558;48.242;11.654;2023-02-13T03:41:44;98145.69;;;0.57;100.00
62510;BME280;48558;48.242;11.654;2023-02-13T03:46:02;98147.88;;;0.51;100.00
62510;BME280;48558;48.242;11.654;2023-02-13T03:50:16;98153.31;;;0.67;100.00
62510;BME280;48558;48.242;11.654;2023-02-13T03:54:36;98154.88;;;0.68;100.00
62510;BME280;48558;48.242;11.654;2023-02-13T03:59:23;98149.44;;;0.68;100.00
62510;BME280;48558;48.242;11.654;2023-02-13T04:03:44;98149.13;;;0.38;100.00
62510;BME280;48558;48.242;11.654;2023-02-13T04:08:01;98147.09;;;0.35;100.00
62510;BME280;48558;48.242;11.654;2023-02-13T04:12:18;98146.47;;;0.42;100.00
62510;BME280;48558;48.242;11.654;2023-02-13T04:16:39;98140.94;;;0.69;100.00
62510;BME280;48558;48.242;11.654;2023-02-13T04:20:54;98143.69;;;0.54;100.00
62510;BME280;48558;48.242;11.654;2023-02-13T04:25:07;98144.34;;;0.66;100.00
62510;BME280;48558;48.242;11.654;2023-02-13T04:29:23;98145.16;;;0.51;100.00
62510;BME280;48558;48.242;11.654;2023-02-13T04:33:36;98144.53;;;0.73;100.00
62510;BME280;48558;48.242;11.654;2023-02-13T04:37:49;98137.59;;;0.76;100.00
62510;BME280;48558;48.242;11.654;2023-02-13T04:42:02;98146.28;;;0.50;100.00
62510;BME280;48558;48.242;11.654;2023-02-13T04:46:14;98155.94;;;0.48;100.00
62510;BME280;48558;48.242;11.654;2023-02-13T04:50:27;98150.19;;;0.84;100.00
62510;BME280;48558;48.242;11.654;2023-02-13T04:54:40;98143.94;;;0.49;100.00
62510;BME280;48558;48.242;11.654;2023-02-13T04:58:53;98152.09;;;0.64;100.00
62510;BME280;48558;48.242;11.654;2023-02-13T05:03:10;98151.88;;;0.73;100.00
62510;BME280;48558;48.242;11.654;2023-02-13T05:07:23;98154.09;;;0.67;100.00
62510;BME280;48558;48.242;11.654;2023-02-13T05:11:36;98155.94;;;0.63;100.00
62510;BME280;48558;48.242;11.654;2023-02-13T05:15:48;98142.28;;;0.44;100.00
62510;BME280;48558;48.242;11.654;2023-02-13T05:20:04;98154.00;;;0.64;100.00
62510;BME280;48558;48.242;11.654;2023-02-13T05:24:17;98153.75;;;0.69;100.00
62510;BME280;48558;48.242;11.654;2023-02-13T05:28:31;98151.31;;;0.48;100.00
62510;BME280;48558;48.242;11.654;2023-02-13T05:33:03;98152.91;;;0.49;100.00
62510;BME280;48558;48.242;11.654;2023-02-13T05:37:15;98148.75;;;0.40;100.00
62510;BME280;48558;48.242;11.654;2023-02-13T05:41:28;98154.88;;;0.52;100.00
62510;BME280;48558;48.242;11.654;2023-02-13T05:45:40;98151.13;;;0.41;100.00
62510;BME280;48558;48.242;11.654;2023-02-13T05:49:53;98162.78;;;0.42;100.00
62510;BME280;48558;48.242;11.654;2023-02-13T05:54:05;98162.00;;;0.57;100.00
62510;BME280;48558;48.242;11.654;2023-02-13T05:58:19;98176.56;;;0.64;100.00
62510;BME280;48558;48.242;11.654;2023-02-13T06:02:34;98171.22;;;0.37;100.00
62510;BME280;48558;48.242;11.654;2023-02-13T06:06:46;98157.97;;;0.35;100.00
62510;BME280;48558;48.242;11.654;2023-02-13T06:10:59;98171.13;;;0.49;100.00
62510;BME280;48558;48.242;11.654;2023-02-13T06:15:11;98175.16;;;0.70;100.00
62510;BME280;48558;48.242;11.654;2023-02-13T06:19:24;98166.31;;;0.58;100.00
62510;BME280;48558;48.242;11.654;2023-02-13T06:23:36;98179.19;;;0.77;100.00
62510;BME280;48558;48.242;11.654;2023-02-13T06:27:49;98175.59;;;0.88;100.00
62510;BME280;48558;48.242;11.654;2023-02-13T06:32:01;98173.13;;;0.83;100.00
62510;BME280;48558;48.242;11.654;2023-02-13T06:36:14;98189.97;;;0.73;100.00
62510;BME280;48558;48.242;11.654;2023-02-13T06:40:27;98199.47;;;0.63;100.00
62510;BME280;48558;48.242;11.654;2023-02-13T06:44:39;98201.13;;;0.84;100.00
62510;BME280;48558;48.242;11.654;2023-02-13T06:48:52;98197.88;;;0.78;100.00
62510;BME280;48558;48.242;11.654;2023-02-13T06:53:05;98198.06;;;0.85;100.00
62510;BME280;48558;48.242;11.654;2023-02-13T06:57:17;98208.91;;;1.01;100.00
62510;BME280;48558;48.242;11.654;2023-02-13T07:01:30;98206.44;;;1.11;100.00
62510;BME280;48558;48.242;11.654;2023-02-13T07:05:44;98200.09;;;1.23;100.00
62510;BME280;48558;48.242;11.654;2023-02-13T07:09:56;98202.91;;;1.26;100.00
62510;BME280;48558;48.242;11.654;2023-02-13T07:14:10;98210.88;;;1.35;100.00
62510;BME280;48558;48.242;11.654;2023-02-13T07:18:23;98225.75;;;1.22;100.00
62510;BME280;48558;48.242;11.654;2023-02-13T07:22:35;98214.66;;;1.30;100.00
62510;BME280;48558;48.242;11.654;2023-02-13T07:26:48;98225.78;;;1.41;100.00
62510;BME280;48558;48.242;11.654;2023-02-13T07:31:04;98230.44;;;1.40;100.00
62510;BME280;48558;48.242;11.654;2023-02-13T07:35:17;98242.81;;;1.03;100.00
62510;BME280;48558;48.242;11.654;2023-02-13T07:39:29;98246.69;;;1.37;100.00
62510;BME280;48558;48.242;11.654;2023-02-13T07:43:42;98240.34;;;1.14;100.00
62510;BME280;48558;48.242;11.654;2023-02-13T07:47:55;98260.28;;;1.02;100.00
62510;BME280;48558;48.242;11.654;2023-02-13T07:52:09;98262.31;;;1.05;100.00
62510;BME280;48558;48.242;11.654;2023-02-13T07:56:21;98255.81;;;1.10;100.00
62510;BME280;48558;48.242;11.654;2023-02-13T08:00:33;98256.41;;;1.19;100.00
62510;BME280;48558;48.242;11.654;2023-02-13T08:04:46;98261.59;;;1.24;100.00
62510;BME280;48558;48.242;11.654;2023-02-13T08:08:58;98252.78;;;1.30;100.00
62510;BME280;48558;48.242;11.654;2023-02-13T08:13:31;98260.22;;;1.33;100.00
62510;BME280;48558;48.242;11.654;2023-02-13T08:17:43;98250.25;;;1.57;100.00
62510;BME280;48558;48.242;11.654;2023-02-13T08:21:56;98252.63;;;1.58;100.00
62510;BME280;48558;48.242;11.654;2023-02-13T08:26:08;98259.69;;;1.43;100.00
62510;BME280;48558;48.242;11.654;2023-02-13T08:30:22;98262.94;;;1.33;100.00
62510;BME280;48558;48.242;11.654;2023-02-13T08:34:34;98231.69;;;1.62;100.00
62510;BME280;48558;48.242;11.654;2023-02-13T08:38:47;98257.03;;;2.01;100.00
62510;BME280;48558;48.242;11.654;2023-02-13T08:43:01;98254.25;;;1.43;100.00
62510;BME280;48558;48.242;11.654;2023-02-13T08:47:15;98250.97;;;1.54;100.00
62510;BME280;48558;48.242;11.654;2023-02-13T08:51:27;98260.91;;;1.81;100.00
62510;BME280;48558;48.242;11.654;2023-02-13T08:55:40;98245.25;;;1.78;100.00
62510;BME280;48558;48.242;11.654;2023-02-13T08:59:52;98231.41;;;1.86;100.00
62510;BME280;48558;48.242;11.654;2023-02-13T09:04:05;98251.09;;;1.61;100.00
62510;BME280;48558;48.242;11.654;2023-02-13T09:08:17;98260.66;;;1.70;100.00
62510;BME280;48558;48.242;11.654;2023-02-13T09:12:30;98261.09;;;1.72;100.00
62510;BME280;48558;48.242;11.654;2023-02-13T09:16:42;98264.47;;;2.04;100.00
62510;BME280;48558;48.242;11.654;2023-02-13T09:21:03;98270.53;;;1.94;100.00
62510;BME280;48558;48.242;11.654;2023-02-13T09:25:29;98273.66;;;2.15;100.00
62510;BME280;48558;48.242;11.654;2023-02-13T09:29:41;98257.72;;;1.79;100.00
62510;BME280;48558;48.242;11.654;2023-02-13T09:33:54;98267.13;;;2.39;100.00
62510;BME280;48558;48.242;11.654;2023-02-13T09:38:06;98275.25;;;1.97;100.00
62510;BME280;48558;48.242;11.654;2023-02-13T09:42:25;98274.63;;;2.03;100.00
62510;BME280;48558;48.242;11.654;2023-02-13T09:46:41;98279.91;;;2.35;100.00
62510;BME280;48558;48.242;11.654;2023-02-13T09:50:56;98268.81;;;2.47;100.00
62510;BME280;48558;48.242;11.654;2023-02-13T09:55:17;98283.25;;;2.47;100.00
62510;BME280;48558;48.242;11.654;2023-02-13T09:59:52;98275.41;;;2.87;100.00
62510;BME280;48558;48.242;11.654;2023-02-13T10:17:58;98279.09;;;2.99;100.00
62510;BME280;48558;48.242;11.654;2023-02-13T10:22:48;98277.41;;;2.68;100.00
62510;BME280;48558;48.242;11.654;2023-02-13T10:27:24;98267.41;;;2.75;100.00
62510;BME280;48558;48.242;11.654;2023-02-13T10:31:43;98272.66;;;2.87;100.00
62510;BME280;48558;48.242;11.654;2023-02-13T10:40:17;98263.03;;;2.94;100.00
62510;BME280;48558;48.242;11.654;2023-02-13T10:59:00;98239.13;;;2.87;100.00
62510;BME280;48558;48.242;11.654;2023-02-13T11:03:26;98248.19;;;3.17;100.00
62510;BME280;48558;48.242;11.654;2023-02-13T11:07:40;98239.13;;;3.10;100.00
62510;BME280;48558;48.242;11.654;2023-02-13T11:11:54;98236.81;;;3.12;100.00
62510;BME280;48558;48.242;11.654;2023-02-13T11:16:08;98226.59;;;3.35;100.00
62510;BME280;48558;48.242;11.654;2023-02-13T11:20:32;98235.41;;;2.76;100.00
62510;BME280;48558;48.242;11.654;2023-02-13T11:24:52;98221.31;;;2.29;100.00
62510;BME280;48558;48.242;11.654;2023-02-13T11:33:30;98230.81;;;3.03;100.00
62510;BME280;48558;48.242;11.654;2023-02-13T11:37:42;98223.03;;;3.31;100.00
62510;BME280;48558;48.242;11.654;2023-02-13T11:41:55;98229.91;;;3.47;100.00
62510;BME280;48558;48.242;11.654;2023-02-13T11:46:16;98225.53;;;2.90;100.00
62510;BME280;48558;48.242;11.654;2023-02-13T11:50:32;98236.16;;;2.96;100.00
62510;BME280;48558;48.242;11.654;2023-02-13T11:54:55;98243.38;;;3.33;100.00
62510;BME280;48558;48.242;11.654;2023-02-13T11:59:15;98234.44;;;3.36;100.00
62510;BME280;48558;48.242;11.654;2023-02-13T12:03:30;98232.66;;;2.72;100.00
62510;BME280;48558;48.242;11.654;2023-02-13T12:07:44;98232.59;;;2.92;100.00
62510;BME280;48558;48.242;11.654;2023-02-13T12:11:59;98233.84;;;3.24;100.00
62510;BME280;48558;48.242;11.654;2023-02-13T12:16:31;98221.66;;;2.92;100.00
62510;BME280;48558;48.242;11.654;2023-02-13T12:21:08;98226.28;;;3.40;100.00
62510;BME280;48558;48.242;11.654;2023-02-13T12:25:56;98221.47;;;3.30;100.00
62510;BME280;48558;48.242;11.654;2023-02-13T12:44:42;98190.72;;;3.10;100.00
62510;BME280;48558;48.242;11.654;2023-02-13T13:04:02;98187.38;;;3.20;100.00
62510;BME280;48558;48.242;11.654;2023-02-13T13:08:36;98170.19;;;3.20;100.00
62510;BME280;48558;48.242;11.654;2023-02-13T13:21:35;98185.72;;;3.42;100.00
62510;BME280;48558;48.242;11.654;2023-02-13T13:26:14;98184.38;;;3.58;100.00
62510;BME280;48558;48.242;11.654;2023-02-13T13:30:33;98180.00;;;3.50;100.00
62510;BME280;48558;48.242;11.654;2023-02-13T13:34:47;98195.81;;;3.68;100.00
62510;BME280;48558;48.242;11.654;2023-02-13T13:39:32;98198.44;;;3.57;100.00
62510;BME280;48558;48.242;11.654;2023-02-13T13:44:14;98208.72;;;3.15;100.00
62510;BME280;48558;48.242;11.654;2023-02-13T13:48:46;98206.19;;;3.25;100.00
62510;BME280;48558;48.242;11.654;2023-02-13T13:53:13;98190.03;;;3.43;100.00
62510;BME280;48558;48.242;11.654;2023-02-13T14:10:58;98170.50;;;3.74;100.00
62510;BME280;48558;48.242;11.654;2023-02-13T14:24:53;98170.13;;;4.09;100.00
62510;BME280;48558;48.242;11.654;2023-02-13T14:29:30;98172.50;;;3.77;100.00
62510;BME280;48558;48.242;11.654;2023-02-13T14:33:44;98171.44;;;3.85;100.00
62510;BME280;48558;48.242;11.654;2023-02-13T14:37:59;98161.94;;;4.09;100.00
62510;BME280;48558;48.242;11.654;2023-02-13T14:42:25;98158.91;;;4.17;100.00
62510;BME280;48558;48.242;11.654;2023-02-13T14:46:39;98160.81;;;4.13;100.00
62510;BME280;48558;48.242;11.654;2023-02-13T14:50:54;98166.28;;;4.13;100.00
62510;BME280;48558;48.242;11.654;2023-02-13T14:55:33;98162.38;;;4.14;100.00
62510;BME280;48558;48.242;11.654;2023-02-13T14:59:57;98155.81;;;3.86;100.00
62510;BME280;48558;48.242;11.654;2023-02-13T15:04:20;98162.47;;;3.55;100.00
62510;BME280;48558;48.242;11.654;2023-02-13T15:08:44;98161.72;;;3.58;100.00
62510;BME280;48558;48.242;11.654;2023-02-13T15:13:01;98163.84;;;3.42;100.00
62510;BME280;48558;48.242;11.654;2023-02-13T15:17:22;98158.75;;;3.70;100.00
62510;BME280;48558;48.242;11.654;2023-02-13T15:21:56;98157.34;;;3.50;100.00
62510;BME280;48558;48.242;11.654;2023-02-13T15:26:18;98157.03;;;3.58;100.00
62510;BME280;48558;48.242;11.654;2023-02-13T15:30:35;98156.22;;;3.54;100.00
62510;BME280;48558;48.242;11.654;2023-02-13T15:34:48;98143.38;;;3.29;100.00
62510;BME280;48558;48.242;11.654;2023-02-13T15:39:03;98154.00;;;3.08;100.00
62510;BME280;48558;48.242;11.654;2023-02-13T15:43:26;98150.53;;;3.37;100.00
62510;BME280;48558;48.242;11.654;2023-02-13T15:47:52;98145.31;;;3.28;100.00
62510;BME280;48558;48.242;11.654;2023-02-13T15:52:14;98161.78;;;3.06;100.00
62510;BME280;48558;48.242;11.654;2023-02-13T15:56:33;98156.06;;;3.14;100.00
62510;BME280;48558;48.242;11.654;2023-02-13T16:00:46;98163.88;;;2.89;100.00
62510;BME280;48558;48.242;11.654;2023-02-13T16:05:00;98171.84;;;2.98;100.00
62510;BME280;48558;48.242;11.654;2023-02-13T16:09:32;98175.78;;;3.01;100.00
62510;BME280;48558;48.242;11.654;2023-02-13T16:18:29;98173.13;;;2.81;100.00
62510;BME280;48558;48.242;11.654;2023-02-13T16:22:44;98158.00;;;2.87;100.00
62510;BME280;48558;48.242;11.654;2023-02-13T16:26:59;98171.44;;;2.73;100.00
62510;BME280;48558;48.242;11.654;2023-02-13T16:31:14;98167.63;;;2.78;100.00
62510;BME280;48558;48.242;11.654;2023-02-13T16:35:29;98166.81;;;2.77;100.00
62510;BME280;48558;48.242;11.654;2023-02-13T16:39:42;98171.75;;;2.68;100.00
62510;BME280;48558;48.242;11.654;2023-02-13T16:44:04;98176.72;;;2.63;100.00
62510;BME280;48558;48.242;11.654;2023-02-13T16:48:17;98166.53;;;2.60;100.00
62510;BME280;48558;48.242;11.654;2023-02-13T16:52:30;98174.31;;;2.58;100.00
62510;BME280;48558;48.242;11.654;2023-02-13T16:56:58;98170.78;;;2.57;100.00
62510;BME280;48558;48.242;11.654;2023-02-13T17:01:14;98175.19;;;2.65;100.00
62510;BME280;48558;48.242;11.654;2023-02-13T17:05:28;98183.59;;;2.53;100.00
62510;BME280;48558;48.242;11.654;2023-02-13T17:09:40;98179.31;;;2.56;100.00
62510;BME280;48558;48.242;11.654;2023-02-13T17:13:53;98180.97;;;2.60;100.00
62510;BME280;48558;48.242;11.654;2023-02-13T17:18:05;98178.13;;;2.53;100.00
62510;BME280;48558;48.242;11.654;2023-02-13T17:22:29;98183.59;;;2.53;100.00
62510;BME280;48558;48.242;11.654;2023-02-13T17:26:45;98189.09;;;2.34;100.00
62510;BME280;48558;48.242;11.654;2023-02-13T17:30:58;98196.06;;;2.32;100.00
62510;BME280;48558;48.242;11.654;2023-02-13T17:35:12;98183.69;;;2.38;100.00
62510;BME280;48558;48.242;11.654;2023-02-13T17:39:25;98173.69;;;2.23;100.00
62510;BME280;48558;48.242;11.654;2023-02-13T17:43:38;98181.44;;;2.21;100.00
62510;BME280;48558;48.242;11.654;2023-02-13T17:47:54;98199.97;;;2.11;100.00
62510;BME280;48558;48.242;11.654;2023-02-13T17:52:21;98203.91;;;2.14;100.00
62510;BME280;48558;48.242;11.654;2023-02-13T17:56:37;98204.16;;;1.86;100.00
62510;BME280;48558;48.242;11.654;2023-02-13T18:00:49;98200.69;;;2.08;100.00
62510;BME280;48558;48.242;11.654;2023-02-13T18:05:02;98200.91;;;2.00;100.00
62510;BME280;48558;48.242;11.654;2023-02-13T18:09:14;98184.00;;;1.91;100.00
62510;BME280;48558;48.242;11.654;2023-02-13T18:13:27;98184.50;;;1.77;100.00
62510;BME280;48558;48.242;11.654;2023-02-13T18:17:40;98196.34;;;1.85;100.00
62510;BME280;48558;48.242;11.654;2023-02-13T18:21:53;98188.88;;;1.82;100.00
62510;BME280;48558;48.242;11.654;2023-02-13T18:26:08;98187.16;;;1.93;100.00
62510;BME280;48558;48.242;11.654;2023-02-13T18:30:21;98183.06;;;1.83;100.00
62510;BME280;48558;48.242;11.654;2023-02-13T18:34:44;98180.84;;;1.89;100.00
62510;BME280;48558;48.242;11.654;2023-02-13T18:38:57;98182.53;;;1.97;100.00
62510;BME280;48558;48.242;11.654;2023-02-13T18:43:10;98165.34;;;1.93;100.00
62510;BME280;48558;48.242;11.654;2023-02-13T18:47:22;98186.00;;;1.94;100.00
62510;BME280;48558;48.242;11.654;2023-02-13T18:51:35;98192.41;;;1.82;100.00
62510;BME280;48558;48.242;11.654;2023-02-13T18:55:47;98176.47;;;1.65;100.00
62510;BME280;48558;48.242;11.654;2023-02-13T19:00:00;98180.91;;;1.54;100.00
62510;BME280;48558;48.242;11.654;2023-02-13T19:04:14;98188.59;;;1.68;100.00
62510;BME280;48558;48.242;11.654;2023-02-13T19:08:27;98189.59;;;1.60;100.00
62510;BME280;48558;48.242;11.654;2023-02-13T19:12:39;98204.50;;;1.66;100.00
62510;BME280;48558;48.242;11.654;2023-02-13T19:16:52;98193.19;;;1.44;100.00
62510;BME280;48558;48.242;11.654;2023-02-13T19:21:05;98189.72;;;1.48;100.00
62510;BME280;48558;48.242;11.654;2023-02-13T19:25:18;98191.59;;;1.43;100.00
62510;BME280;48558;48.242;11.654;2023-02-13T19:29:33;98179.91;;;1.43;100.00
62510;BME280;48558;48.242;11.654;2023-02-13T19:33:45;98179.03;;;1.39;100.00
62510;BME280;48558;48.242;11.654;2023-02-13T19:37:58;98185.97;;;1.17;100.00
62510;BME280;48558;48.242;11.654;2023-02-13T19:42:11;98177.13;;;1.05;100.00
62510;BME280;48558;48.242;11.654;2023-02-13T19:46:29;98186.41;;;1.19;100.00
62510;BME280;48558;48.242;11.654;2023-02-13T19:50:42;98186.69;;;1.14;100.00
62510;BME280;48558;48.242;11.654;2023-02-13T19:54:55;98189.94;;;1.04;100.00
62510;BME280;48558;48.242;11.654;2023-02-13T19:59:07;98201.28;;;0.75;100.00
62510;BME280;48558;48.242;11.654;2023-02-13T20:03:24;98190.25;;;0.68;100.00
62510;BME280;48558;48.242;11.654;2023-02-13T20:07:36;98187.38;;;0.61;100.00
62510;BME280;48558;48.242;11.654;2023-02-13T20:11:49;98205.34;;;0.97;100.00
62510;BME280;48558;48.242;11.654;2023-02-13T20:16:06;98196.91;;;0.86;100.00
62510;BME280;48558;48.242;11.654;2023-02-13T20:20:20;98194.09;;;0.98;100.00
62510;BME280;48558;48.242;11.654;2023-02-13T20:24:33;98190.09;;;1.11;100.00
62510;BME280;48558;48.242;11.654;2023-02-13T20:28:46;98192.66;;;1.04;100.00
62510;BME280;48558;48.242;11.654;2023-02-13T20:32:59;98188.28;;;1.00;100.00
62510;BME280;48558;48.242;11.654;2023-02-13T20:37:11;98191.44;;;0.86;100.00
62510;BME280;48558;48.242;11.654;2023-02-13T20:41:29;98204.00;;;0.91;100.00
62510;BME280;48558;48.242;11.654;2023-02-13T20:45:42;98189.03;;;0.65;100.00
62510;BME280;48558;48.242;11.654;2023-02-13T20:49:55;98204.47;;;0.61;100.00
62510;BME280;48558;48.242;11.654;2023-02-13T20:54:08;98201.59;;;0.70;100.00
62510;BME280;48558;48.242;11.654;2023-02-13T20:58:21;98200.69;;;0.66;100.00
62510;BME280;48558;48.242;11.654;2023-02-13T21:02:34;98182.88;;;0.68;100.00
62510;BME280;48558;48.242;11.654;2023-02-13T21:06:46;98206.84;;;0.63;100.00
62510;BME280;48558;48.242;11.654;2023-02-13T21:11:00;98206.56;;;0.68;100.00
62510;BME280;48558;48.242;11.654;2023-02-13T21:15:14;98199.91;;;0.81;100.00
62510;BME280;48558;48.242;11.654;2023-02-13T21:19:26;98184.09;;;0.71;100.00
62510;BME280;48558;48.242;11.654;2023-02-13T21:23:39;98191.75;;;0.81;100.00
62510;BME280;48558;48.242;11.654;2023-02-13T21:27:51;98181.66;;;0.66;100.00
62510;BME280;48558;48.242;11.654;2023-02-13T21:32:04;98186.13;;;0.74;100.00
62510;BME280;48558;48.242;11.654;2023-02-13T21:36:17;98164.09;;;0.48;100.00
62510;BME280;48558;48.242;11.654;2023-02-13T21:40:29;98164.91;;;0.48;100.00
62510;BME280;48558;48.242;11.654;2023-02-13T21:44:41;98158.41;;;0.53;100.00
62510;BME280;48558;48.242;11.654;2023-02-13T21:48:56;98153.50;;;0.43;100.00
62510;BME280;48558;48.242;11.654;2023-02-13T21:53:13;98149.75;;;0.47;100.00
62510;BME280;48558;48.242;11.654;2023-02-13T21:57:27;98137.53;;;0.41;100.00
62510;BME280;48558;48.242;11.654;2023-02-13T22:01:40;98141.47;;;0.28;100.00
62510;BME280;48558;48.242;11.654;2023-02-13T22:05:52;98110.41;;;0.14;100.00
62510;BME280;48558;48.242;11.654;2023-02-13T22:10:06;98129.56;;;0.33;100.00
62510;BME280;48558;48.242;11.654;2023-02-13T22:14:19;98137.78;;;0.21;100.00
62510;BME280;48558;48.242;11.654;2023-02-13T22:18:35;98125.69;;;0.49;100.00
62510;BME280;48558;48.242;11.654;2023-02-13T22:22:49;98107.97;;;0.40;100.00
62510;BME280;48558;48.242;11.654;2023-02-13T22:27:02;98109.97;;;0.27;100.00
62510;BME280;48558;48.242;11.654;2023-02-13T22:31:17;98120.09;;;0.42;100.00
62510;BME280;48558;48.242;11.654;2023-02-13T22:35:30;98122.69;;;0.39;100.00
62510;BME280;48558;48.242;11.654;2023-02-13T22:39:43;98122.28;;;0.37;100.00
62510;BME280;48558;48.242;11.654;2023-02-13T22:43:56;98118.31;;;0.19;100.00
62510;BME280;48558;48.242;11.654;2023-02-13T22:48:08;98123.94;;;0.26;100.00
62510;BME280;48558;48.242;11.654;2023-02-13T22:52:21;98132.88;;;0.11;100.00
62510;BME280;48558;48.242;11.654;2023-02-13T22:56:34;98118.69;;;0.17;100.00
62510;BME280;48558;48.242;11.654;2023-02-13T23:00:46;98120.53;;;0.13;100.00
62510;BME280;48558;48.242;11.654;2023-02-13T23:04:58;98134.25;;;0.05;100.00
62510;BME280;48558;48.242;11.654;2023-02-13T23:09:11;98125.72;;;0.34;100.00
62510;BME280;48558;48.242;11.654;2023-02-13T23:13:23;98133.25;;;0.25;100.00
62510;BME280;48558;48.242;11.654;2023-02-13T23:17:36;98148.41;;;0.26;100.00
62510;BME280;48558;48.242;11.654;2023-02-13T23:22:07;98143.41;;;0.28;100.00
62510;BME280;48558;48.242;11.654;2023-02-13T23:26:28;98105.34;;;-0.04;100.00
62510;BME280;48558;48.242;11.654;2023-02-13T23:30:41;98136.22;;;0.04;100.00
62510;BME280;48558;48.242;11.654;2023-02-13T23:34:54;98119.63;;;0.09;100.00
62510;BME280;48558;48.242;11.654;2023-02-13T23:39:07;98118.31;;;0.03;100.00
62510;BME280;48558;48.242;11.654;2023-02-13T23:43:20;98108.31;;;-0.09;100.00
62510;BME280;48558;48.242;11.654;2023-02-13T23:47:32;98119.13;;;0.04;100.00
62510;BME280;48558;48.242;11.654;2023-02-13T23:51:46;98131.41;;;0.29;100.00
62510;BME280;48558;48.242;11.654;2023-02-13T23:55:58;98104.66;;;-0.01;100.00
